sensor_id;sensor_type;location;lat;lon;timestamp;pressure;altitude;pressure_sealevel;temperature;humidity
7586;BME280;12459;42.646;23.292;2023-11-21T00:09:43;93388.88;;;6.25;96.38
7586;BME280;12459;42.646;23.292;2023-11-21T00:24:46;93395.72;;;6.36;96.20
7586;BME280;12459;42.646;23.292;2023-11-21T00:39:47;93381.63;;;6.15;98.09
7586;BME280;12459;42.646;23.292;2023-11-21T00:54:49;93377.63;;;5.34;100.00
7586;BME280;12459;42.646;23.292;2023-11-21T01:09:51;93172.75;;;3.51;100.00
7586;BME280;12459;42.646;23.292;2023-11-21T01:24:53;93271.97;;;4.12;100.00
7586;BME280;12459;42.646;23.292;2023-11-21T01:39:55;93206.25;;;4.49;100.00
7586;BME280;12459;42.646;23.292;2023-11-21T01:54:58;93488.03;;;6.18;100.00
7586;BME280;12459;42.646;23.292;2023-11-21T02:10:01;93310.72;;;4.27;100.00
7586;BME280;12459;42.646;23.292;2023-11-21T02:25:04;93245.66;;;4.44;100.00
7586;BME280;12459;42.646;23.292;2023-11-21T02:40:06;93214.69;;;3.42;100.00
7586;BME280;12459;42.646;23.292;2023-11-21T02:55:11;93373.84;;;4.59;100.00
7586;BME280;12459;42.646;23.292;2023-11-21T03:10:12;93172.88;;;3.14;100.00
7586;BME280;12459;42.646;23.292;2023-11-21T03:25:15;93490.00;;;4.83;100.00
7586;BME280;12459;42.646;23.292;2023-11-21T03:40:19;93146.75;;;3.67;100.00
7586;BME280;12459;42.646;23.292;2023-11-21T03:55:22;93192.94;;;3.66;100.00
7586;BME280;12459;42.646;23.292;2023-11-21T04:10:25;93361.84;;;4.86;100.00
7586;BME280;12459;42.646;23.292;2023-11-21T04:25:27;93256.41;;;4.79;100.00
7586;BME280;12459;42.646;23.292;2023-11-21T04:40:29;93287.63;;;4.28;100.00
7586;BME280;12459;42.646;23.292;2023-11-21T04:55:31;93236.25;;;3.92;100.00
7586;BME280;12459;42.646;23.292;2023-11-21T05:10:33;93530.84;;;5.85;100.00
7586;BME280;12459;42.646;23.292;2023-11-21T05:25:35;93301.03;;;4.53;100.00
7586;BME280;12459;42.646;23.292;2023-11-21T05:40:41;93255.97;;;4.60;100.00
7586;BME280;12459;42.646;23.292;2023-11-21T05:55:43;93277.84;;;4.42;100.00
7586;BME280;12459;42.646;23.292;2023-11-21T06:10:45;92994.78;;;2.62;100.00
7586;BME280;12459;42.646;23.292;2023-11-21T06:25:50;93460.94;;;5.77;100.00
7586;BME280;12459;42.646;23.292;2023-11-21T06:40:52;93393.41;;;6.10;100.00
7586;BME280;12459;42.646;23.292;2023-11-21T06:55:54;93374.78;;;6.17;100.00
7586;BME280;12459;42.646;23.292;2023-11-21T07:10:56;93482.38;;;7.19;100.00
7586;BME280;12459;42.646;23.292;2023-11-21T07:25:58;93390.00;;;6.77;99.29
7586;BME280;12459;42.646;23.292;2023-11-21T07:41:00;93476.28;;;7.26;100.00
7586;BME280;12459;42.646;23.292;2023-11-21T07:56:06;93488.25;;;7.98;96.55
7586;BME280;12459;42.646;23.292;2023-11-21T08:11:11;93424.50;;;7.41;99.41
7586;BME280;12459;42.646;23.292;2023-11-21T08:26:16;93436.38;;;8.10;98.62
7586;BME280;12459;42.646;23.292;2023-11-21T08:41:18;93216.00;;;7.05;95.76
7586;BME280;12459;42.646;23.292;2023-11-21T08:56:22;93263.66;;;7.62;96.02
7586;BME280;12459;42.646;23.292;2023-11-21T09:11:24;93254.94;;;8.06;92.92
7586;BME280;12459;42.646;23.292;2023-11-21T09:26:27;93362.94;;;9.25;90.69
7586;BME280;12459;42.646;23.292;2023-11-21T09:41:43;93371.91;;;9.76;88.23
7586;BME280;12459;42.646;23.292;2023-11-21T09:56:47;93313.72;;;10.07;87.08
7586;BME280;12459;42.646;23.292;2023-11-21T10:11:49;93229.84;;;9.90;86.73
7586;BME280;12459;42.646;23.292;2023-11-21T10:26:53;93065.03;;;9.26;83.43
7586;BME280;12459;42.646;23.292;2023-11-21T10:41:55;93100.09;;;9.78;80.95
7586;BME280;12459;42.646;23.292;2023-11-21T10:56:59;93268.06;;;11.04;79.04
7586;BME280;12459;42.646;23.292;2023-11-21T11:12:02;93168.22;;;10.60;82.06
7586;BME280;12459;42.646;23.292;2023-11-21T11:27:30;93210.78;;;11.14;80.52
7586;BME280;12459;42.646;23.292;2023-11-21T11:42:32;93118.34;;;10.27;78.85
7586;BME280;12459;42.646;23.292;2023-11-21T11:57:34;93203.69;;;10.87;84.73
7586;BME280;12459;42.646;23.292;2023-11-21T12:12:36;93126.78;;;10.25;88.48
7586;BME280;12459;42.646;23.292;2023-11-21T12:27:40;93109.22;;;9.81;94.90
7586;BME280;12459;42.646;23.292;2023-11-21T12:42:46;93054.75;;;9.48;94.82
7586;BME280;12459;42.646;23.292;2023-11-21T12:57:52;93176.81;;;10.71;91.62
7586;BME280;12459;42.646;23.292;2023-11-21T13:13:00;93046.97;;;10.16;89.20
7586;BME280;12459;42.646;23.292;2023-11-21T13:28:02;93158.31;;;10.37;94.17
7586;BME280;12459;42.646;23.292;2023-11-21T13:43:03;93021.38;;;9.76;96.51
7586;BME280;12459;42.646;23.292;2023-11-21T13:58:06;92887.41;;;8.64;93.79
7586;BME280;12459;42.646;23.292;2023-11-21T14:13:12;93102.22;;;10.30;98.59
7586;BME280;12459;42.646;23.292;2023-11-21T14:28:14;93107.53;;;10.10;100.00
7586;BME280;12459;42.646;23.292;2023-11-21T14:43:16;92974.88;;;9.50;100.00
7586;BME280;12459;42.646;23.292;2023-11-21T14:58:20;93107.78;;;10.59;100.00
7586;BME280;12459;42.646;23.292;2023-11-21T15:13:28;92928.63;;;8.63;100.00
7586;BME280;12459;42.646;23.292;2023-11-21T15:28:31;93089.41;;;10.18;95.56
7586;BME280;12459;42.646;23.292;2023-11-21T15:43:34;92970.41;;;9.20;94.11
7586;BME280;12459;42.646;23.292;2023-11-21T15:58:37;92460.72;;;6.07;90.65
7586;BME280;12459;42.646;23.292;2023-11-21T16:13:38;93094.78;;;9.75;95.76
7586;BME280;12459;42.646;23.292;2023-11-21T16:28:42;93056.94;;;9.96;96.39
7586;BME280;12459;42.646;23.292;2023-11-21T16:43:44;93028.53;;;9.39;99.67
7586;BME280;12459;42.646;23.292;2023-11-21T16:58:46;92745.38;;;6.68;100.00
7586;BME280;12459;42.646;23.292;2023-11-21T17:13:48;93009.53;;;8.60;100.00
7586;BME280;12459;42.646;23.292;2023-11-21T17:28:49;92957.16;;;8.12;100.00
7586;BME280;12459;42.646;23.292;2023-11-21T17:43:51;92560.97;;;5.76;100.00
7586;BME280;12459;42.646;23.292;2023-11-21T17:58:53;92957.22;;;8.09;100.00
7586;BME280;12459;42.646;23.292;2023-11-21T18:13:55;93028.38;;;8.76;100.00
7586;BME280;12459;42.646;23.292;2023-11-21T18:28:59;92800.25;;;7.23;100.00
7586;BME280;12459;42.646;23.292;2023-11-21T18:44:01;92807.72;;;7.35;100.00
7586;BME280;12459;42.646;23.292;2023-11-21T18:59:04;92999.13;;;8.69;100.00
7586;BME280;12459;42.646;23.292;2023-11-21T19:14:09;92670.63;;;6.55;100.00
7586;BME280;12459;42.646;23.292;2023-11-21T19:29:11;93007.22;;;8.62;100.00
7586;BME280;12459;42.646;23.292;2023-11-21T19:44:13;92567.91;;;5.29;100.00
7586;BME280;12459;42.646;23.292;2023-11-21T19:59:15;92993.31;;;8.74;99.57
7586;BME280;12459;42.646;23.292;2023-11-21T20:14:18;93001.13;;;8.61;100.00
7586;BME280;12459;42.646;23.292;2023-11-21T20:29:20;93041.78;;;9.23;100.00
7586;BME280;12459;42.646;23.292;2023-11-21T20:44:24;92743.66;;;7.42;98.65
7586;BME280;12459;42.646;23.292;2023-11-21T20:59:26;92922.56;;;8.05;100.00
7586;BME280;12459;42.646;23.292;2023-11-21T21:14:28;92791.72;;;7.89;99.73
7586;BME280;12459;42.646;23.292;2023-11-21T21:29:31;92787.34;;;7.75;100.00
7586;BME280;12459;42.646;23.292;2023-11-21T21:44:32;92849.69;;;7.85;100.00
7586;BME280;12459;42.646;23.292;2023-11-21T21:59:35;92696.47;;;6.85;100.00
7586;BME280;12459;42.646;23.292;2023-11-21T22:14:39;92934.78;;;8.60;100.00
7586;BME280;12459;42.646;23.292;2023-11-21T22:29:41;92996.78;;;8.71;100.00
7586;BME280;12459;42.646;23.292;2023-11-21T22:44:43;92986.91;;;8.68;100.00
7586;BME280;12459;42.646;23.292;2023-11-21T22:59:45;92833.75;;;7.81;100.00
7586;BME280;12459;42.646;23.292;2023-11-21T23:14:47;92675.44;;;6.33;100.00
7586;BME280;12459;42.646;23.292;2023-11-21T23:29:48;92863.38;;;8.41;100.00
7586;BME280;12459;42.646;23.292;2023-11-21T23:44:55;93013.94;;;8.97;100.00
7586;BME280;12459;42.646;23.292;2023-11-21T23:59:57;92899.66;;;8.61;100.00
